Time;durP1;ratioP1;P1;durP2;ratioP2;P2;SDS_P1;SDS_P2;PMS_P1;PMS_P2;Temp;Humidity;BMP_temperature;BMP_pressure;BME280_temperature;BME280_humidity;BME280_pressure;Samples;Min_cycle;Max_cycle;Signal;HPM_P1;HPM_P2
2022/03/08 00:02:25;;;;;;;24.08;13.43;;;7.60;44.10;;;;;;5093527;28;20093;-81
2022/03/08 00:04:51;;;;;;;23.83;12.98;;;7.70;43.80;;;;;;5089802;28;20127;-81
2022/03/08 00:07:16;;;;;;;23.98;12.95;;;7.60;43.10;;;;;;5096164;28;20095;-81
2022/03/08 00:09:43;;;;;;;23.35;11.95;;;7.20;43.40;;;;;;5095885;28;20088;-82
2022/03/08 00:12:10;;;;;;;20.88;11.82;;;7.30;43.10;;;;;;5089339;28;20072;-81
2022/03/08 00:14:35;;;;;;;22.98;12.38;;;7.20;43.50;;;;;;5083073;28;20123;-81
2022/03/08 00:17:03;;;;;;;22.20;12.23;;;7.60;43.60;;;;;;5097632;28;20131;-79
2022/03/08 00:19:28;;;;;;;21.75;11.73;;;7.70;42.60;;;;;;5077860;28;20052;-79
2022/03/08 00:21:56;;;;;;;24.55;12.65;;;7.80;43.00;;;;;;5104719;28;20062;-78
2022/03/08 00:24:21;;;;;;;20.38;11.77;;;7.80;42.20;;;;;;5097821;28;20030;-79
2022/03/08 00:26:47;;;;;;;23.63;11.80;;;7.60;42.50;;;;;;5114176;28;20019;-81
2022/03/08 00:29:13;;;;;;;22.23;12.93;;;7.50;43.30;;;;;;5082617;28;20139;-80
2022/03/08 00:31:38;;;;;;;25.20;12.55;;;7.50;44.30;;;;;;5089186;28;20024;-80
2022/03/08 00:34:04;;;;;;;26.80;14.13;;;6.90;44.70;;;;;;5105103;28;20071;-79
2022/03/08 00:36:32;;;;;;;24.40;12.75;;;6.80;45.00;;;;;;5094813;28;20494;-81
2022/03/08 00:38:58;;;;;;;25.10;12.90;;;6.50;45.40;;;;;;5097127;28;20024;-80
2022/03/08 00:41:25;;;;;;;23.33;13.02;;;6.60;45.90;;;;;;5097521;28;20537;-81
2022/03/08 00:43:51;;;;;;;21.15;11.65;;;6.90;45.60;;;;;;5097338;28;20035;-80
2022/03/08 00:46:17;;;;;;;24.40;11.70;;;7.00;44.50;;;;;;5110986;28;20024;-80
2022/03/08 00:48:43;;;;;;;23.83;13.10;;;7.40;43.90;;;;;;5084076;28;20067;-82
2022/03/08 00:51:11;;;;;;;24.60;12.95;;;7.40;44.00;;;;;;5097550;28;20015;-81
2022/03/08 00:53:37;;;;;;;26.15;12.95;;;7.40;44.20;;;;;;5105656;28;20036;-81
2022/03/08 00:56:03;;;;;;;23.13;11.57;;;7.50;43.80;;;;;;5076939;28;20047;-81
2022/03/08 00:58:29;;;;;;;25.48;12.55;;;7.50;43.30;;;;;;5081745;28;20490;-82
2022/03/08 01:00:55;;;;;;;22.73;12.77;;;7.40;43.70;;;;;;5095356;28;20102;-80
2022/03/08 01:03:21;;;;;;;20.02;11.55;;;7.20;43.80;;;;;;5090860;28;20081;-81
2022/03/08 01:05:47;;;;;;;22.00;11.80;;;7.10;43.50;;;;;;5096446;28;20028;-81
2022/03/08 01:08:13;;;;;;;23.33;12.40;;;7.00;43.30;;;;;;5081084;28;20028;-81
2022/03/08 01:10:40;;;;;;;19.52;11.55;;;7.20;43.40;;;;;;5076525;28;20024;-81
2022/03/08 01:13:06;;;;;;;22.60;11.98;;;7.40;42.90;;;;;;5078372;28;20549;-81
2022/03/08 01:15:33;;;;;;;20.27;11.07;;;7.50;42.70;;;;;;5083341;28;20030;-82
2022/03/08 01:17:59;;;;;;;21.77;12.25;;;7.00;43.10;;;;;;5086017;28;20085;-82
2022/03/08 01:20:26;;;;;;;21.80;11.95;;;7.00;43.50;;;;;;5094565;28;20030;-82
2022/03/08 01:22:52;;;;;;;22.98;12.57;;;7.00;43.80;;;;;;5087038;28;20024;-83
2022/03/08 01:25:20;;;;;;;23.73;12.60;;;7.00;44.40;;;;;;5096644;28;20028;-83
2022/03/08 01:27:46;;;;;;;24.23;12.65;;;7.20;44.50;;;;;;5089620;28;20089;-82
2022/03/08 01:30:14;;;;;;;25.92;13.50;;;6.90;44.90;;;;;;5113236;28;20032;-83
2022/03/08 01:32:41;;;;;;;23.48;12.15;;;6.80;45.40;;;;;;5095969;28;20026;-84
2022/03/08 01:35:07;;;;;;;23.33;13.18;;;7.00;45.30;;;;;;5080440;28;20482;-82
2022/03/08 01:37:33;;;;;;;22.65;12.85;;;7.00;45.40;;;;;;5089249;28;20123;-83
2022/03/08 01:39:58;;;;;;;27.48;13.50;;;6.90;45.70;;;;;;5076229;28;20045;-81
2022/03/08 01:42:25;;;;;;;26.42;14.27;;;6.20;47.00;;;;;;5095290;28;20028;-82
2022/03/08 01:44:51;;;;;;;28.38;13.82;;;5.50;48.80;;;;;;5097666;28;20482;-83
2022/03/08 01:47:20;;;;;;;26.98;14.27;;;5.30;49.60;;;;;;5080084;28;20016;-83
2022/03/08 01:49:47;;;;;;;23.80;13.65;;;5.30;49.40;;;;;;5081248;28;20416;-83
2022/03/08 01:52:15;;;;;;;23.98;13.55;;;5.70;48.80;;;;;;5101626;28;20035;-83
2022/03/08 01:54:42;;;;;;;25.52;12.93;;;6.00;47.40;;;;;;5092872;28;20032;-82
2022/03/08 01:57:08;;;;;;;23.60;12.90;;;6.40;47.00;;;;;;5092620;28;20032;-83
2022/03/08 01:59:34;;;;;;;22.30;13.43;;;6.60;46.40;;;;;;5076112;28;20024;-84
2022/03/08 02:02:02;;;;;;;24.42;13.63;;;6.50;46.20;;;;;;5076182;28;20020;-83
2022/03/08 02:04:27;;;;;;;26.13;12.55;;;6.70;45.90;;;;;;5075914;28;20497;-84
2022/03/08 02:06:53;;;;;;;24.58;12.27;;;6.80;45.20;;;;;;5095068;28;20023;-84
2022/03/08 02:09:20;;;;;;;23.58;12.85;;;6.50;45.70;;;;;;5075976;28;20028;-83
2022/03/08 02:11:46;;;;;;;22.33;12.38;;;6.30;45.60;;;;;;5075762;28;20073;-82
2022/03/08 02:14:13;;;;;;;22.30;12.75;;;6.40;45.60;;;;;;5084963;28;20042;-82
2022/03/08 02:16:39;;;;;;;21.83;12.00;;;6.50;45.80;;;;;;5093937;28;20051;-85
2022/03/08 02:19:04;;;;;;;23.08;12.45;;;6.60;45.30;;;;;;5075938;28;20028;-83
2022/03/08 02:21:35;;;;;;;23.17;12.38;;;6.70;45.50;;;;;;5093772;28;20376;-83
2022/03/08 02:24:00;;;;;;;;;;;7.00;45.40;;;;;;5076234;28;20471;-84
2022/03/08 02:26:26;;;;;;;22.85;12.45;;;7.00;45.60;;;;;;5075733;28;19911;-83
2022/03/08 02:28:53;;;;;;;24.70;12.88;;;7.00;45.90;;;;;;5093314;28;20024;-83
2022/03/08 02:31:18;;;;;;;23.33;13.05;;;6.80;46.50;;;;;;5095454;28;20020;-83
2022/03/08 02:33:44;;;;;;;24.33;12.80;;;6.80;46.90;;;;;;5092241;28;20073;-85
2022/03/08 02:36:10;;;;;;;24.98;13.80;;;6.40;47.30;;;;;;5093370;28;20031;-84
2022/03/08 02:38:36;;;;;;;25.75;14.35;;;6.00;47.90;;;;;;5089449;28;20050;-83
2022/03/08 02:41:02;;;;;;;28.85;13.95;;;5.90;48.70;;;;;;5109420;28;20050;-84
2022/03/08 02:43:28;;;;;;;27.83;14.32;;;5.80;48.90;;;;;;5075915;28;20479;-84
2022/03/08 02:45:54;;;;;;;25.52;13.80;;;5.50;49.30;;;;;;5075488;28;20137;-83
2022/03/08 02:48:24;;;;;;;24.13;13.98;;;5.30;50.00;;;;;;5087128;28;20031;-83
2022/03/08 02:50:50;;;;;;;27.85;14.45;;;5.10;50.60;;;;;;5095948;28;20371;-83
2022/03/08 02:53:15;;;;;;;24.42;13.63;;;5.30;50.30;;;;;;5111122;28;20466;-83
2022/03/08 02:55:41;;;;;;;24.63;13.77;;;5.40;50.10;;;;;;5094242;28;20103;-83
2022/03/08 02:58:07;;;;;;;27.88;15.15;;;5.30;49.80;;;;;;5096071;28;20033;-83
2022/03/08 03:00:34;;;;;;;30.95;15.45;;;4.80;50.90;;;;;;5096813;28;20040;-83
2022/03/08 03:03:01;;;;;;;32.05;16.10;;;4.10;51.90;;;;;;5088138;28;20062;-82
2022/03/08 03:05:27;;;;;;;28.40;14.95;;;4.00;54.10;;;;;;5075753;28;20054;-84
2022/03/08 03:07:53;;;;;;;29.15;15.85;;;4.10;53.50;;;;;;5076265;28;20112;-84
2022/03/08 03:10:20;;;;;;;30.02;15.77;;;4.30;53.30;;;;;;5093392;28;20063;-84
2022/03/08 03:12:46;;;;;;;29.38;16.10;;;4.10;54.10;;;;;;5099463;28;20047;-85
2022/03/08 03:15:14;;;;;;;29.70;15.95;;;4.30;54.10;;;;;;5095265;28;20059;-83
2022/03/08 03:17:40;;;;;;;28.98;15.82;;;4.20;53.50;;;;;;5077551;28;20055;-83
2022/03/08 03:20:11;;;;;;;27.98;15.50;;;4.00;53.30;;;;;;5075265;28;20024;-83
2022/03/08 03:22:37;;;;;;;29.15;15.95;;;4.30;52.10;;;;;;5075358;28;20075;-85
2022/03/08 03:25:04;;;;;;;31.95;16.20;;;4.50;52.20;;;;;;5100112;28;20031;-84
2022/03/08 03:27:32;;;;;;;31.20;16.10;;;4.70;51.70;;;;;;5085744;28;20032;-84
2022/03/08 03:29:58;;;;;;;32.90;17.08;;;4.40;52.40;;;;;;5075774;28;20496;-84
2022/03/08 03:32:24;;;;;;;32.15;16.00;;;4.60;52.50;;;;;;5102271;28;20015;-84
2022/03/08 03:34:51;;;;;;;34.80;17.38;;;4.50;52.90;;;;;;5095379;28;20429;-85
2022/03/08 03:37:17;;;;;;;33.30;16.65;;;4.70;52.00;;;;;;5102977;28;20420;-85
2022/03/08 03:39:43;;;;;;;34.15;17.58;;;4.70;52.00;;;;;;5099209;28;20482;-86
2022/03/08 03:42:08;;;;;;;37.22;17.55;;;4.40;52.80;;;;;;5098442;28;20055;-86
2022/03/08 03:44:34;;;;;;;33.03;16.92;;;4.40;52.50;;;;;;5098031;28;20430;-86
2022/03/08 03:47:00;;;;;;;32.28;17.48;;;4.40;52.80;;;;;;5082420;28;20073;-85
2022/03/08 03:49:26;;;;;;;31.00;16.92;;;4.30;52.90;;;;;;5095308;28;20391;-86
2022/03/08 03:51:53;;;;;;;33.33;17.50;;;4.00;53.60;;;;;;5085924;28;20039;-84
2022/03/08 03:54:22;;;;;;;34.88;18.05;;;4.00;53.40;;;;;;5099071;28;20048;-86
2022/03/08 03:56:49;;;;;;;35.65;17.55;;;4.30;53.10;;;;;;5096512;28;20347;-87
2022/03/08 03:59:15;;;;;;;34.78;17.55;;;4.60;52.10;;;;;;5091653;28;20036;-85
2022/03/08 04:01:40;;;;;;;33.10;17.65;;;4.20;52.80;;;;;;5088519;28;20077;-86
2022/03/08 04:04:06;;;;;;;36.75;17.88;;;4.30;53.20;;;;;;5096343;28;20028;-86
2022/03/08 04:06:35;;;;;;;30.85;16.00;;;4.20;52.70;;;;;;5096416;28;20390;-87
2022/03/08 04:09:03;;;;;;;30.55;16.90;;;4.00;53.10;;;;;;5079898;28;20059;-86
2022/03/08 04:11:29;;;;;;;32.33;17.33;;;3.40;54.20;;;;;;5087021;28;20027;-86
2022/03/08 04:13:55;;;;;;;35.85;18.35;;;3.20;55.10;;;;;;5097674;28;20036;-85
2022/03/08 04:16:20;;;;;;;31.80;16.63;;;3.20;55.50;;;;;;5092969;28;20103;-86
2022/03/08 04:18:46;;;;;;;34.65;17.13;;;3.30;55.00;;;;;;5103727;28;20436;-86
2022/03/08 04:21:19;;;;;;;35.65;18.42;;;3.60;54.80;;;;;;5109307;28;20024;-86
2022/03/08 04:23:45;;;;;;;33.50;17.13;;;3.60;54.60;;;;;;5100674;28;20556;-87
2022/03/08 04:26:11;;;;;;;34.00;17.77;;;3.50;54.60;;;;;;5084820;28;20027;-87
2022/03/08 04:28:36;;;;;;;36.53;18.05;;;3.50;54.60;;;;;;5105590;28;20028;-87
2022/03/08 04:31:02;;;;;;;34.88;18.00;;;3.60;54.70;;;;;;5095958;28;20028;-87
2022/03/08 04:33:28;;;;;;;37.10;17.50;;;3.90;54.30;;;;;;5095802;28;20032;-85
2022/03/08 04:35:53;;;;;;;35.20;18.58;;;3.80;54.30;;;;;;5077685;28;20073;-86
2022/03/08 04:38:19;;;;;;;34.20;17.88;;;3.20;55.30;;;;;;5103835;28;20032;-87
2022/03/08 04:40:45;;;;;;;37.88;19.45;;;3.00;56.20;;;;;;5113971;28;20028;-87
2022/03/08 04:43:11;;;;;;;35.38;17.73;;;2.90;56.60;;;;;;5098010;28;20028;-88
2022/03/08 04:45:36;;;;;;;38.92;19.25;;;2.90;56.80;;;;;;5097288;28;20023;-85
2022/03/08 04:48:02;;;;;;;34.17;17.63;;;2.80;56.70;;;;;;5113372;28;20101;-87
2022/03/08 04:50:28;;;;;;;39.08;19.13;;;2.60;57.00;;;;;;5097827;28;20073;-86
2022/03/08 04:52:54;;;;;;;39.55;19.70;;;2.80;57.50;;;;;;5096011;28;20031;-87
2022/03/08 04:55:20;;;;;;;33.95;17.20;;;2.70;57.10;;;;;;5096115;28;20063;-85
2022/03/08 04:57:47;;;;;;;36.53;17.63;;;2.50;57.20;;;;;;5095704;28;20083;-82
2022/03/08 05:00:14;;;;;;;34.78;17.70;;;2.50;56.80;;;;;;5097083;28;20024;-89
2022/03/08 05:02:41;;;;;;;36.90;18.25;;;2.70;56.90;;;;;;5115161;28;20462;-89
2022/03/08 05:05:08;;;;;;;35.50;17.55;;;2.60;56.70;;;;;;5105810;28;20023;-88
2022/03/08 05:07:38;;;;;;;35.13;17.65;;;2.50;57.60;;;;;;5077414;28;20032;-88
2022/03/08 05:10:05;;;;;;;36.83;17.80;;;2.60;57.80;;;;;;5076942;28;20028;-86
2022/03/08 05:12:31;;;;;;;34.22;17.38;;;2.70;57.80;;;;;;5076983;28;20032;-87
2022/03/08 05:14:57;;;;;;;38.13;18.42;;;2.90;56.80;;;;;;5080371;28;20039;-88
2022/03/08 05:17:23;;;;;;;36.17;17.77;;;3.10;56.40;;;;;;5094893;28;20055;-85
2022/03/08 05:19:49;;;;;;;33.92;17.63;;;3.30;55.80;;;;;;5080185;28;20020;-88
2022/03/08 05:22:14;;;;;;;35.72;17.35;;;3.20;56.10;;;;;;5096979;28;20068;-84
2022/03/08 05:24:41;;;;;;;36.33;17.83;;;3.10;56.10;;;;;;5083824;28;20051;-86
2022/03/08 05:27:07;;;;;;;36.38;19.00;;;2.90;56.50;;;;;;5105539;28;20462;-87
2022/03/08 05:29:33;;;;;;;35.95;17.73;;;2.60;57.80;;;;;;5079713;28;20028;-87
2022/03/08 05:31:59;;;;;;;33.78;16.88;;;2.40;58.50;;;;;;5084567;28;20031;-89
2022/03/08 05:34:25;;;;;;;34.38;17.83;;;2.20;59.10;;;;;;5094541;28;20048;-89
2022/03/08 05:36:52;;;;;;;37.60;18.98;;;2.30;59.20;;;;;;5082120;28;20083;-89
2022/03/08 05:39:18;;;;;;;35.72;17.67;;;2.30;58.70;;;;;;5087047;28;20028;-88
2022/03/08 05:41:43;;;;;;;41.35;19.27;;;2.20;59.10;;;;;;5094651;28;20085;-87
2022/03/08 05:44:09;;;;;;;36.35;18.42;;;2.00;59.60;;;;;;5076451;28;20479;-87
2022/03/08 05:46:35;;;;;;;36.15;18.65;;;1.80;60.10;;;;;;5082623;28;20031;-89
2022/03/08 05:49:01;;;;;;;39.35;19.83;;;2.00;59.60;;;;;;5087960;28;20111;-87
2022/03/08 05:51:27;;;;;;;54.40;24.77;;;2.50;59.00;;;;;;5092478;28;20114;-88
2022/03/08 05:53:52;;;;;;;48.88;23.27;;;3.00;58.00;;;;;;5094501;28;20036;-89
2022/03/08 05:56:18;;;;;;;56.75;27.98;;;3.10;56.80;;;;;;5086523;27;20027;-86
2022/03/08 05:58:44;;;;;;;51.05;23.08;;;3.30;56.70;;;;;;5105749;27;20027;-86
2022/03/08 06:01:10;;;;;;;48.15;25.08;;;3.20;56.30;;;;;;5117070;27;20019;-89
2022/03/08 06:03:35;;;;;;;41.33;23.25;;;3.20;56.70;;;;;;5100192;28;20049;-85
2022/03/08 06:06:01;;;;;;;52.78;27.08;;;3.50;56.70;;;;;;4759452;28;10000038;-89
2022/03/08 06:08:26;;;;;;;41.78;20.65;;;3.80;55.90;;;;;;5095245;28;20034;-89
2022/03/08 06:10:52;;;;;;;38.17;20.35;;;4.10;54.90;;;;;;5094369;28;20032;-89
2022/03/08 06:13:18;;;;;;;37.65;20.30;;;3.90;55.20;;;;;;5093537;28;20023;-87
2022/03/08 06:15:44;;;;;;;42.58;21.75;;;3.60;55.60;;;;;;5091201;28;20375;-89
2022/03/08 06:18:10;;;;;;;40.67;20.27;;;3.70;55.80;;;;;;5069298;28;20100;-87
2022/03/08 06:20:35;;;;;;;40.88;20.23;;;3.50;55.90;;;;;;5074262;28;20031;-87
2022/03/08 06:23:01;;;;;;;38.22;21.02;;;3.50;56.90;;;;;;5074081;28;20543;-84
2022/03/08 06:25:27;;;;;;;43.08;21.92;;;3.70;56.60;;;;;;5074885;28;20045;-84
2022/03/08 06:27:53;;;;;;;40.05;20.75;;;3.50;56.70;;;;;;5093358;28;20028;-86
2022/03/08 06:30:18;;;;;;;39.38;20.08;;;3.50;57.10;;;;;;5092609;28;20399;-85
2022/03/08 06:32:44;;;;;;;41.03;19.50;;;3.30;57.30;;;;;;5092548;28;20035;-84
2022/03/08 06:35:10;;;;;;;39.00;19.75;;;3.40;57.10;;;;;;5074448;28;20498;-81
2022/03/08 06:37:36;;;;;;;39.95;21.48;;;3.60;56.80;;;;;;4717549;28;10000248;-81
2022/03/08 06:40:03;;;;;;;42.58;20.98;;;3.50;57.20;;;;;;5060302;28;20055;-82
2022/03/08 06:42:29;;;;;;;42.67;21.30;;;3.70;57.20;;;;;;5091105;28;20028;-81
2022/03/08 06:44:54;;;;;;;39.22;20.67;;;4.10;56.60;;;;;;5074809;28;20025;-84
2022/03/08 06:47:20;;;;;;;40.33;21.25;;;4.60;55.70;;;;;;5075273;28;20028;-85
2022/03/08 06:49:46;;;;;;;38.72;20.25;;;5.00;54.40;;;;;;4714126;28;9999957;-84
2022/03/08 06:52:13;;;;;;;40.03;21.08;;;5.10;53.90;;;;;;5085079;28;20532;-83
2022/03/08 06:54:40;;;;;;;45.83;23.85;;;5.50;53.50;;;;;;5095146;28;20053;-83
2022/03/08 06:57:06;;;;;;;38.83;20.00;;;5.80;52.70;;;;;;5106367;28;20024;-83
2022/03/08 06:59:32;;;;;;;61.88;26.85;;;5.90;52.10;;;;;;5074471;28;20517;-81
2022/03/08 07:02:00;;;;;;;41.80;23.88;;;6.10;52.40;;;;;;5092199;28;20024;-83
2022/03/08 07:04:26;;;;;;;42.53;22.55;;;5.90;52.50;;;;;;5074122;28;20097;-82
2022/03/08 07:06:51;;;;;;;45.72;24.65;;;5.80;53.30;;;;;;5074288;28;20511;-82
2022/03/08 07:09:17;;;;;;;44.83;25.00;;;5.70;53.60;;;;;;5074397;28;20032;-83
2022/03/08 07:11:43;;;;;;;42.30;23.10;;;5.80;53.70;;;;;;5075813;28;20382;-82
2022/03/08 07:14:10;;;;;;;40.42;22.35;;;6.30;52.90;;;;;;5078068;28;20092;-82
2022/03/08 07:16:36;;;;;;;38.92;22.15;;;6.50;51.90;;;;;;5106599;28;20047;-83
2022/03/08 07:19:02;;;;;;;43.50;23.02;;;6.90;51.90;;;;;;5098733;28;20022;-83
2022/03/08 07:21:28;;;;;;;40.75;21.65;;;7.40;50.90;;;;;;5099161;28;20031;-82
2022/03/08 07:23:54;;;;;;;36.22;20.48;;;7.50;50.20;;;;;;5098462;28;20030;-82
2022/03/08 07:26:19;;;;;;;39.05;19.98;;;7.10;50.20;;;;;;5115742;28;20023;-82
2022/03/08 07:28:45;;;;;;;33.95;19.63;;;7.20;50.50;;;;;;5096698;28;20023;-83
2022/03/08 07:31:12;;;;;;;35.22;20.25;;;7.40;50.10;;;;;;5096219;28;20085;-83
2022/03/08 07:33:38;;;;;;;39.35;21.95;;;7.60;50.00;;;;;;5095252;28;20039;-82
2022/03/08 07:36:04;;;;;;;42.88;24.38;;;7.70;49.50;;;;;;5113487;28;20019;-82
2022/03/08 07:38:30;;;;;;;57.50;27.88;;;8.10;49.30;;;;;;5094878;28;20028;-82
2022/03/08 07:40:56;;;;;;;129.23;48.58;;;8.20;48.80;;;;;;5113725;28;20068;-84
2022/03/08 07:43:22;;;;;;;52.60;25.58;;;8.10;48.90;;;;;;5095030;28;20367;-83
2022/03/08 07:45:48;;;;;;;46.67;23.85;;;8.10;49.30;;;;;;5107260;27;20465;-82
2022/03/08 07:48:14;;;;;;;36.35;19.48;;;8.20;48.70;;;;;;5133389;27;20118;-81
2022/03/08 07:50:40;;;;;;;32.47;18.45;;;8.60;48.50;;;;;;5114814;27;20088;-81
2022/03/08 07:53:06;;;;;;;34.00;18.92;;;8.80;47.80;;;;;;5114964;27;20469;-81
2022/03/08 07:55:34;;;;;;;34.40;19.80;;;8.70;48.20;;;;;;5133164;27;20419;-83
2022/03/08 07:58:02;;;;;;;34.63;19.85;;;9.00;47.40;;;;;;5133175;27;20023;-83
2022/03/08 08:00:28;;;;;;;36.67;21.50;;;9.30;47.10;;;;;;5114634;27;20027;-79
2022/03/08 08:02:54;;;;;;;43.90;22.58;;;9.50;47.30;;;;;;5114494;27;20468;-80
2022/03/08 08:05:20;;;;;;;36.40;20.60;;;9.60;47.50;;;;;;5114555;27;20458;-79
2022/03/08 08:07:47;;;;;;;37.60;22.38;;;10.40;46.70;;;;;;5114275;27;20059;-79
2022/03/08 08:10:13;;;;;;;37.80;21.75;;;11.00;46.10;;;;;;5114130;27;20489;-80
2022/03/08 08:12:39;;;;;;;37.97;22.38;;;12.20;44.60;;;;;;5114169;27;20034;-81
2022/03/08 08:15:06;;;;;;;33.47;20.02;;;13.40;43.10;;;;;;5114413;27;20031;-80
2022/03/08 08:17:33;;;;;;;34.88;21.13;;;14.90;41.20;;;;;;5113983;27;20043;-79
2022/03/08 08:19:59;;;;;;;33.38;19.50;;;15.90;40.10;;;;;;5113924;27;20026;-79
2022/03/08 08:22:24;;;;;;;31.45;19.30;;;17.30;38.70;;;;;;5113680;27;20027;-80
2022/03/08 08:24:50;;;;;;;29.25;18.15;;;18.50;37.40;;;;;;5113977;27;20019;-80
2022/03/08 08:27:16;;;;;;;28.00;16.80;;;19.40;36.40;;;;;;5114008;27;20046;-80
2022/03/08 08:29:42;;;;;;;22.55;14.70;;;20.70;35.30;;;;;;5132291;27;20394;-81
2022/03/08 08:32:08;;;;;;;21.83;14.60;;;21.80;33.30;;;;;;5114051;27;20431;-79
2022/03/08 08:34:33;;;;;;;22.70;14.30;;;22.70;33.00;;;;;;5114045;27;20035;-81
2022/03/08 08:36:59;;;;;;;21.67;14.52;;;24.00;32.10;;;;;;5113782;27;20022;-81
2022/03/08 08:39:25;;;;;;;21.67;13.30;;;24.20;31.40;;;;;;5113972;27;20024;-79
2022/03/08 08:41:51;;;;;;;41.08;31.85;;;24.50;31.40;;;;;;5113838;27;20833;-79
2022/03/08 08:44:19;;;;;;;22.02;13.63;;;24.10;31.60;;;;;;5113616;27;20035;-80
2022/03/08 08:46:45;;;;;;;23.77;15.15;;;23.10;31.10;;;;;;5093774;28;20468;-81
2022/03/08 08:49:11;;;;;;;19.05;13.63;;;20.50;32.80;;;;;;5093128;28;20123;-80
2022/03/08 08:51:36;;;;;;;19.77;13.43;;;19.80;34.00;;;;;;5093450;28;20114;-81
2022/03/08 08:54:02;;;;;;;21.13;13.73;;;20.30;33.50;;;;;;5093646;28;20040;-83
2022/03/08 08:56:28;;;;;;;21.60;14.40;;;20.50;33.30;;;;;;5093328;28;20027;-81
2022/03/08 08:58:54;;;;;;;20.27;13.90;;;20.80;33.30;;;;;;5093558;28;20035;-80
2022/03/08 09:01:19;;;;;;;19.77;13.43;;;20.70;33.40;;;;;;5093330;28;20465;-81
2022/03/08 09:03:45;;;;;;;20.88;13.80;;;20.60;33.20;;;;;;5093189;28;20080;-82
2022/03/08 09:06:11;;;;;;;21.73;12.77;;;21.50;33.10;;;;;;5092939;28;20107;-82
2022/03/08 09:08:36;;;;;;;21.33;14.38;;;23.30;32.30;;;;;;5111383;28;20034;-81
2022/03/08 09:11:05;;;;;;;21.05;13.80;;;24.70;31.30;;;;;;5093387;28;20028;-83
2022/03/08 09:13:31;;;;;;;21.00;14.68;;;25.90;31.20;;;;;;5092491;28;20453;-83
2022/03/08 09:15:57;;;;;;;19.70;13.48;;;26.10;30.20;;;;;;5111177;28;20487;-81
2022/03/08 09:18:23;;;;;;;26.08;17.65;;;26.00;30.40;;;;;;5092934;28;20494;-81
2022/03/08 09:20:49;;;;;;;21.17;13.98;;;26.20;30.20;;;;;;5092916;28;20035;-81
2022/03/08 09:23:15;;;;;;;19.23;12.65;;;26.60;30.20;;;;;;5093115;28;20027;-82
2022/03/08 09:25:41;;;;;;;19.67;13.43;;;26.40;30.00;;;;;;5092747;28;20027;-82
2022/03/08 09:28:07;;;;;;;17.80;12.32;;;25.80;30.20;;;;;;5092964;28;20027;-82
2022/03/08 09:30:35;;;;;;;17.92;12.73;;;25.40;30.00;;;;;;5092766;28;20439;-82
2022/03/08 09:33:01;;;;;;;17.83;12.10;;;25.50;30.00;;;;;;5110874;28;20141;-82
2022/03/08 09:35:27;;;;;;;18.00;11.70;;;24.70;30.20;;;;;;5091917;28;20023;-83
2022/03/08 09:37:54;;;;;;;17.20;11.20;;;24.20;30.20;;;;;;5092498;28;20031;-83
2022/03/08 09:40:20;;;;;;;16.50;10.50;;;23.70;30.80;;;;;;5092775;28;20054;-82
2022/03/08 09:42:47;;;;;;;15.60;11.02;;;23.60;31.10;;;;;;5093218;28;20505;-82
2022/03/08 09:45:14;;;;;;;14.05;9.63;;;23.70;30.90;;;;;;5100063;27;20079;-83
2022/03/08 09:47:40;;;;;;;12.68;9.05;;;22.90;30.70;;;;;;5113316;27;20390;-82
2022/03/08 09:50:08;;;;;;;13.93;9.10;;;22.70;30.70;;;;;;5112735;27;20485;-82
2022/03/08 09:52:36;;;;;;;13.10;9.00;;;23.10;30.60;;;;;;5113657;27;20257;-82
2022/03/08 09:55:03;;;;;;;13.02;8.65;;;22.50;31.10;;;;;;5131793;27;20027;-83
2022/03/08 09:57:29;;;;;;;11.35;8.02;;;23.20;30.50;;;;;;5131473;27;20034;-84
2022/03/08 09:59:55;;;;;;;12.88;8.70;;;23.10;30.90;;;;;;5113301;27;20039;-82
2022/03/08 10:02:23;;;;;;;11.40;8.43;;;22.70;30.30;;;;;;5112851;27;20393;-82
2022/03/08 10:05:06;;;;;;;17.23;8.70;;;23.40;30.20;;;;;;5112635;27;20400;-82
2022/03/08 10:07:32;;;;;;;12.88;8.68;;;24.00;29.80;;;;;;5112805;28;20020;-82
2022/03/08 10:09:59;;;;;;;13.27;8.52;;;23.70;30.30;;;;;;5113101;27;20056;-81
2022/03/08 10:12:26;;;;;;;12.55;8.68;;;23.10;30.40;;;;;;5112455;27;20019;-82
2022/03/08 10:14:52;;;;;;;13.75;8.73;;;23.70;29.90;;;;;;5112510;28;20027;-83
2022/03/08 10:17:38;;;;;;;11.38;8.15;;;23.90;29.90;;;;;;5112411;27;20070;-82
2022/03/08 10:20:10;;;;;;;11.63;7.65;;;24.70;29.40;;;;;;5112832;27;20058;-83
2022/03/08 10:22:38;;;;;;;12.93;7.97;;;26.40;29.70;;;;;;5112799;28;20079;-82
2022/03/08 10:25:18;;;;;;;11.30;7.90;;;27.10;29.00;;;;;;5112192;28;20019;-82
2022/03/08 10:27:56;;;;;;;10.88;7.68;;;26.60;29.30;;;;;;5112746;28;20556;-83
2022/03/08 10:30:44;;;;;;;11.57;7.30;;;27.10;29.70;;;;;;5112593;28;20024;-83
2022/03/08 10:33:10;;;;;;;10.23;7.40;;;27.10;29.40;;;;;;5112393;28;20068;-83
2022/03/08 10:35:41;;;;;;;10.75;7.40;;;27.20;28.80;;;;;;5112576;28;20027;-82
2022/03/08 10:38:11;;;;;;;10.73;7.55;;;27.20;28.60;;;;;;5112136;28;20015;-82
2022/03/08 10:40:38;;;;;;;11.50;7.10;;;26.60;29.00;;;;;;5113020;28;20083;-82
2022/03/08 10:43:15;;;;;;;9.38;7.00;;;26.50;29.10;;;;;;5131000;28;20043;-83
2022/03/08 10:45:47;;;;;;;11.68;7.75;;;27.20;29.50;;;;;;5101888;28;20028;-82
2022/03/08 10:48:14;;;;;;;9.90;6.95;;;28.00;29.20;;;;;;5096470;28;20031;-84
2022/03/08 10:50:42;;;;;;;9.65;6.78;;;28.80;28.40;;;;;;5095550;28;20100;-84
2022/03/08 10:53:09;;;;;;;10.90;6.45;;;29.20;28.60;;;;;;5114452;28;20076;-81
2022/03/08 10:55:47;;;;;;;17.70;8.15;;;28.90;28.40;;;;;;5114036;28;20028;-82
2022/03/08 10:58:14;;;;;;;11.02;7.20;;;27.60;28.30;;;;;;5096197;28;20038;-84
2022/03/08 11:00:47;;;;;;;9.63;7.03;;;26.10;28.20;;;;;;5097403;28;20482;-82
2022/03/08 11:03:19;;;;;;;9.70;7.45;;;24.50;29.10;;;;;;5115670;28;20036;-84
2022/03/08 11:05:52;;;;;;;8.60;5.68;;;23.20;29.60;;;;;;5099410;28;20107;-82
2022/03/08 11:08:18;;;;;;;8.30;5.70;;;23.00;28.80;;;;;;5099288;28;20027;-84
2022/03/08 11:10:44;;;;;;;8.68;5.95;;;22.30;29.10;;;;;;5099372;28;20027;-83
2022/03/08 11:13:12;;;;;;;9.70;6.60;;;21.00;29.70;;;;;;5099122;28;20028;-83
2022/03/08 11:15:41;;;;;;;9.80;6.53;;;19.50;30.50;;;;;;5116759;28;20030;-82
2022/03/08 11:18:11;;;;;;;10.43;6.88;;;18.70;31.40;;;;;;5099192;28;20016;-84
2022/03/08 11:20:37;;;;;;;;;;;17.50;32.20;;;;;;5099261;28;20081;-84
2022/03/08 11:23:04;;;;;;;11.88;6.45;;;17.10;31.90;;;;;;5098938;28;19904;-82
2022/03/08 11:25:36;;;;;;;10.45;6.53;;;17.10;32.20;;;;;;5099145;28;20102;-81
2022/03/08 11:28:03;;;;;;;11.63;6.72;;;16.40;31.70;;;;;;5099173;28;20539;-83
2022/03/08 11:30:33;;;;;;;9.60;6.18;;;16.10;33.10;;;;;;5116605;28;20096;-84
2022/03/08 11:33:17;;;;;;;9.45;6.18;;;16.60;32.40;;;;;;5098744;28;20028;-83
2022/03/08 11:35:58;;;;;;;13.07;6.70;;;17.40;32.20;;;;;;5098943;28;20074;-84
2022/03/08 11:38:24;;;;;;;;;;;17.10;32.30;;;;;;5099346;28;20023;-81
2022/03/08 11:40:55;;;;;;;11.15;6.50;;;16.40;32.30;;;;;;5098550;28;19904;-81
2022/03/08 11:43:45;;;;;;;10.10;6.00;;;15.90;33.20;;;;;;5098782;28;20493;-82
2022/03/08 11:46:17;;;;;;;9.02;5.95;;;15.70;32.90;;;;;;5098317;28;20050;-80
2022/03/08 11:49:01;;;;;;;9.65;6.38;;;14.90;33.60;;;;;;5116879;28;20052;-85
2022/03/08 11:51:29;;;;;;;8.50;5.93;;;14.40;34.40;;;;;;5098393;28;20028;-84
2022/03/08 11:54:01;;;;;;;9.57;6.40;;;14.20;34.40;;;;;;5098235;28;20035;-83
2022/03/08 11:56:26;;;;;;;10.68;6.07;;;14.80;33.80;;;;;;5098296;28;20028;-82
2022/03/08 11:58:52;;;;;;;9.45;6.00;;;15.70;33.80;;;;;;5097198;28;20118;-82
2022/03/08 12:01:32;;;;;;;9.82;6.50;;;16.50;33.70;;;;;;5116444;28;20063;-82
2022/03/08 12:04:16;;;;;;;10.43;6.87;;;16.40;32.60;;;;;;5098333;28;20501;-81
2022/03/08 12:06:48;;;;;;;10.13;6.45;;;16.80;32.80;;;;;;5098411;28;20028;-82
2022/03/08 12:09:18;;;;;;;10.77;6.53;;;17.20;32.10;;;;;;5098093;28;20019;-82
2022/03/08 12:11:45;;;;;;;9.98;6.30;;;17.30;31.80;;;;;;5098060;28;20528;-81
2022/03/08 12:14:12;;;;;;;9.25;6.15;;;17.00;31.50;;;;;;5097910;28;20039;-80
2022/03/08 12:16:40;;;;;;;10.95;6.30;;;16.90;31.50;;;;;;5094371;28;20044;-83
2022/03/08 12:19:08;;;;;;;9.20;6.13;;;15.90;33.00;;;;;;5112562;28;20035;-81
2022/03/08 12:21:41;;;;;;;15.23;6.78;;;15.90;32.50;;;;;;5097474;28;20088;-81
2022/03/08 12:24:18;;;;;;;12.90;7.30;;;15.90;32.90;;;;;;5098044;28;20030;-79
2022/03/08 12:26:55;;;;;;;11.38;6.90;;;15.30;33.30;;;;;;5098290;28;20027;-80
2022/03/08 12:29:49;;;;;;;11.50;6.60;;;15.50;33.90;;;;;;5097380;28;20023;-81
2022/03/08 12:32:34;;;;;;;13.63;6.20;;;15.30;33.50;;;;;;5097703;28;20381;-78
2022/03/08 12:35:11;;;;;;;13.77;8.10;;;14.80;33.90;;;;;;5097394;28;20036;-79
2022/03/08 12:37:47;;;;;;;20.00;8.70;;;14.90;34.70;;;;;;5097246;28;20046;-78